createdAt,value
2018-02-20T00:02:11.928Z,44.80
2018-02-20T00:04:41.030Z,45.10
2018-02-20T00:07:10.117Z,44.90
2018-02-20T00:09:39.240Z,45.10
2018-02-20T00:12:07.477Z,44.90
2018-02-20T00:14:37.421Z,45.30
2018-02-20T00:17:05.734Z,45.20
2018-02-20T00:19:34.257Z,45.10
2018-02-20T00:22:02.526Z,45.00
2018-02-20T00:24:30.765Z,45.00
2018-02-20T00:26:59.042Z,45.10
2018-02-20T00:29:27.318Z,45.40
2018-02-20T00:31:55.594Z,45.90
2018-02-20T00:34:23.850Z,45.40
2018-02-20T00:36:52.117Z,45.30
2018-02-20T00:39:20.413Z,45.70
2018-02-20T00:41:48.657Z,45.30
2018-02-20T00:44:17.653Z,45.50
2018-02-20T00:46:48.101Z,45.50
2018-02-20T00:49:16.369Z,45.80
2018-02-20T00:51:44.613Z,45.70
2018-02-20T00:54:13.663Z,46.50
2018-02-20T00:56:41.950Z,45.80
2018-02-20T00:59:10.229Z,45.90
2018-02-20T01:01:38.719Z,46.00
2018-02-20T01:04:07.022Z,45.80
2018-02-20T01:06:36.670Z,46.00
2018-02-20T01:09:05.034Z,46.00
2018-02-20T01:11:33.533Z,46.00
2018-02-20T01:14:01.769Z,46.10
2018-02-20T01:16:31.934Z,46.10
2018-02-20T01:19:00.736Z,46.20
2018-02-20T01:21:29.013Z,46.40
2018-02-20T01:23:57.362Z,46.30
2018-02-20T01:26:25.615Z,46.30
2018-02-20T01:28:54.658Z,46.30
2018-02-20T01:31:23.004Z,46.40
2018-02-20T01:33:51.257Z,46.40
2018-02-20T01:36:20.369Z,46.40
2018-02-20T01:38:48.661Z,46.20
2018-02-20T01:41:16.952Z,46.30
2018-02-20T01:43:45.182Z,46.30
2018-02-20T01:46:14.266Z,46.70
2018-02-20T01:48:43.417Z,46.60
2018-02-20T01:51:11.738Z,46.60
2018-02-20T01:53:40.129Z,46.60
2018-02-20T01:56:09.262Z,46.40
2018-02-20T01:58:37.492Z,46.40
2018-02-20T02:01:06.725Z,46.30
2018-02-20T02:03:35.069Z,46.30
2018-02-20T02:06:03.302Z,46.40
2018-02-20T02:08:31.672Z,46.30
2018-02-20T02:11:00.965Z,46.50
2018-02-20T02:13:29.243Z,46.70
2018-02-20T02:15:57.729Z,46.50
2018-02-20T02:18:25.976Z,46.70
2018-02-20T02:20:54.344Z,46.40
2018-02-20T02:23:22.673Z,46.50
2018-02-20T02:25:50.985Z,46.40
2018-02-20T02:28:19.260Z,46.20
2018-02-20T02:30:47.510Z,46.20
2018-02-20T02:33:15.841Z,46.30
2018-02-20T02:35:44.216Z,46.40
2018-02-20T02:38:13.221Z,46.50
2018-02-20T02:40:41.601Z,46.40
2018-02-20T02:43:09.853Z,46.40
2018-02-20T02:45:38.872Z,46.70
2018-02-20T02:48:07.118Z,46.50
2018-02-20T02:50:35.380Z,46.50
2018-02-20T02:53:03.663Z,46.80
2018-02-20T02:55:31.892Z,46.70
2018-02-20T02:58:00.129Z,47.00
2018-02-20T03:00:29.277Z,46.70
2018-02-20T03:02:57.593Z,46.70
2018-02-20T03:05:25.834Z,46.80
2018-02-20T03:07:54.079Z,46.80
2018-02-20T03:10:22.325Z,46.80
2018-02-20T03:12:51.458Z,46.70
2018-02-20T03:15:19.698Z,46.70
2018-02-20T03:17:48.018Z,46.90
2018-02-20T03:20:16.266Z,47.50
2018-02-20T03:22:45.347Z,46.90
2018-02-20T03:25:14.456Z,47.00
2018-02-20T03:27:42.722Z,47.10
2018-02-20T03:30:11.751Z,47.00
2018-02-20T03:32:40.006Z,47.10
2018-02-20T03:35:08.867Z,47.20
2018-02-20T03:37:37.196Z,47.20
2018-02-20T03:40:05.421Z,47.10
2018-02-20T03:42:33.673Z,47.20
2018-02-20T03:45:01.917Z,47.30
2018-02-20T03:47:30.163Z,47.20
2018-02-20T03:49:59.264Z,47.30
2018-02-20T03:52:28.338Z,47.40
2018-02-20T03:54:57.477Z,47.50
2018-02-20T03:57:25.715Z,47.50
2018-02-20T03:59:54.022Z,47.60
2018-02-20T04:02:22.262Z,47.50
2018-02-20T04:04:51.379Z,47.40
2018-02-20T04:07:20.390Z,47.60
2018-02-20T04:09:48.633Z,47.50
2018-02-20T04:12:17.063Z,47.50
2018-02-20T04:14:45.346Z,47.50
2018-02-20T04:17:13.616Z,47.40
2018-02-20T04:19:41.837Z,47.60
2018-02-20T04:22:10.170Z,47.60
2018-02-20T04:24:38.413Z,47.50
2018-02-20T04:27:06.676Z,47.50
2018-02-20T04:29:35.693Z,47.40
2018-02-20T04:32:04.037Z,47.40
2018-02-20T04:34:33.248Z,47.80
2018-02-20T04:37:01.766Z,47.80
2018-02-20T04:39:30.829Z,47.90
2018-02-20T04:41:59.181Z,47.40
2018-02-20T04:44:27.440Z,47.40
2018-02-20T04:46:56.256Z,47.70
2018-02-20T04:49:24.676Z,47.70
2018-02-20T04:51:52.945Z,47.80
2018-02-20T04:54:21.222Z,47.50
2018-02-20T04:56:50.318Z,47.70
2018-02-20T04:59:18.570Z,47.70
2018-02-20T05:01:48.126Z,47.70
2018-02-20T05:04:17.173Z,47.70
2018-02-20T05:06:46.204Z,47.80
2018-02-20T05:09:14.568Z,47.80
2018-02-20T05:11:42.825Z,47.80
2018-02-20T05:14:11.854Z,47.80
2018-02-20T05:16:40.188Z,47.70
2018-02-20T05:19:09.277Z,47.60
2018-02-20T05:21:38.388Z,47.70
2018-02-20T05:24:06.689Z,47.50
2018-02-20T05:26:34.933Z,47.70
2018-02-20T05:29:04.253Z,47.80
2018-02-20T05:31:32.545Z,47.80
2018-02-20T05:34:00.792Z,47.60
2018-02-20T05:36:29.986Z,47.50
2018-02-20T05:38:58.232Z,47.50
2018-02-20T05:41:26.476Z,47.60
2018-02-20T05:43:54.730Z,48.00
2018-02-20T05:46:23.825Z,47.90
2018-02-20T05:48:52.110Z,48.00
2018-02-20T05:51:20.350Z,47.80
2018-02-20T05:53:48.869Z,47.80
2018-02-20T05:56:17.145Z,47.70
2018-02-20T05:58:45.482Z,47.80
2018-02-20T06:01:13.733Z,47.60
2018-02-20T06:03:42.050Z,47.90
2018-02-20T06:06:10.546Z,47.40
2018-02-20T06:08:38.996Z,47.40
2018-02-20T06:11:07.268Z,47.50
2018-02-20T06:13:35.509Z,47.60
2018-02-20T06:16:03.802Z,47.60
2018-02-20T06:18:32.093Z,47.50
2018-02-20T06:21:00.331Z,47.60
2018-02-20T06:23:28.565Z,47.80
2018-02-20T06:25:58.750Z,48.00
2018-02-20T06:28:27.003Z,47.90
2018-02-20T06:30:55.326Z,48.00
2018-02-20T06:33:23.605Z,47.70
2018-02-20T06:35:51.877Z,47.80
2018-02-20T06:38:20.125Z,47.90
2018-02-20T06:40:48.380Z,47.80
2018-02-20T06:43:16.657Z,47.80
2018-02-20T06:45:44.905Z,47.60
2018-02-20T06:48:14.023Z,47.70
2018-02-20T06:50:42.281Z,47.70
2018-02-20T06:53:11.319Z,48.20
2018-02-20T06:55:39.731Z,48.20
2018-02-20T06:58:08.756Z,48.20
2018-02-20T07:00:37.006Z,48.30
2018-02-20T07:03:06.148Z,48.20
2018-02-20T07:05:34.421Z,48.00
2018-02-20T07:08:02.942Z,48.20
2018-02-20T07:10:31.174Z,48.20
2018-02-20T07:12:59.421Z,48.30
2018-02-20T07:15:28.541Z,48.60
2018-02-20T07:17:56.853Z,48.40
2018-02-20T07:20:25.273Z,48.60
2018-02-20T07:22:54.279Z,48.60
2018-02-20T07:25:22.671Z,48.50
2018-02-20T07:27:50.910Z,48.60
2018-02-20T07:30:20.430Z,48.80
2018-02-20T07:32:49.424Z,48.80
2018-02-20T07:35:17.687Z,48.80
2018-02-20T07:37:45.952Z,48.70
2018-02-20T07:40:14.996Z,48.50
2018-02-20T07:42:43.253Z,48.80
2018-02-20T07:45:11.531Z,49.10
2018-02-20T07:47:39.808Z,49.10
2018-02-20T07:50:08.126Z,48.90
2018-02-20T07:52:37.150Z,48.90
2018-02-20T07:55:05.478Z,49.00
2018-02-20T07:57:33.721Z,48.90
2018-02-20T08:00:02.761Z,48.90
2018-02-20T08:02:31.721Z,49.00
2018-02-20T08:04:59.971Z,49.00
2018-02-20T08:07:29.008Z,49.00
2018-02-20T08:09:57.917Z,49.00
2018-02-20T08:12:26.259Z,49.00
2018-02-20T08:14:54.541Z,49.10
2018-02-20T08:17:23.622Z,49.40
2018-02-20T08:19:52.658Z,49.40
2018-02-20T08:22:21.227Z,49.60
2018-02-20T08:24:49.494Z,49.80
2018-02-20T08:27:17.730Z,50.20
2018-02-20T08:29:46.926Z,50.50
2018-02-20T08:32:15.168Z,50.40
2018-02-20T08:34:43.421Z,50.30
2018-02-20T08:37:11.657Z,50.00
2018-02-20T08:39:40.181Z,50.00
2018-02-20T08:42:08.445Z,49.90
2018-02-20T08:44:36.740Z,50.00
2018-02-20T08:47:06.226Z,49.90
2018-02-20T08:49:35.511Z,49.90
2018-02-20T08:52:04.795Z,50.20
2018-02-20T08:54:33.844Z,50.10
2018-02-20T08:57:02.232Z,50.20
2018-02-20T08:59:30.589Z,50.20
2018-02-20T09:02:03.596Z,50.30
2018-02-20T09:04:32.125Z,50.30
2018-02-20T09:07:00.430Z,50.20
2018-02-20T09:09:28.894Z,50.00
2018-02-20T09:11:57.226Z,49.80
2018-02-20T09:14:25.595Z,49.70
2018-02-20T09:16:53.886Z,49.50
2018-02-20T09:19:22.243Z,49.50
2018-02-20T09:21:50.556Z,49.10
2018-02-20T09:24:18.925Z,49.20
2018-02-20T09:26:47.677Z,49.50
2018-02-20T09:29:16.057Z,49.90
2018-02-20T09:31:45.650Z,49.70
2018-02-20T09:34:14.028Z,49.50
2018-02-20T09:36:42.392Z,49.60
2018-02-20T09:39:10.850Z,50.10
2018-02-20T09:41:39.315Z,49.60
2018-02-20T09:44:07.997Z,49.60
2018-02-20T09:46:36.440Z,49.40
2018-02-20T09:49:04.707Z,49.50
2018-02-20T09:51:32.955Z,49.60
2018-02-20T09:54:01.275Z,49.70
2018-02-20T09:56:29.511Z,49.50
2018-02-20T09:58:57.754Z,49.40
2018-02-20T10:01:26.088Z,49.50
2018-02-20T10:03:54.317Z,49.60
2018-02-20T10:06:23.388Z,49.40
2018-02-20T10:08:51.625Z,49.40
2018-02-20T10:11:20.719Z,49.40
2018-02-20T10:13:49.859Z,49.20
2018-02-20T10:16:18.153Z,49.10
2018-02-20T10:18:46.419Z,49.10
2018-02-20T10:21:14.853Z,49.10
2018-02-20T10:23:43.131Z,48.90
2018-02-20T10:26:11.484Z,48.70
2018-02-20T10:28:39.946Z,48.60
2018-02-20T10:31:08.277Z,48.40
2018-02-20T10:33:36.630Z,48.60
2018-02-20T10:36:05.777Z,48.20
2018-02-20T10:38:34.021Z,48.10
2018-02-20T10:41:02.326Z,48.30
2018-02-20T10:43:34.922Z,48.00
2018-02-20T10:46:03.178Z,47.80
2018-02-20T10:48:31.474Z,47.40
2018-02-20T10:50:59.718Z,47.60
2018-02-20T10:53:28.674Z,47.40
2018-02-20T10:55:57.149Z,47.30
2018-02-20T10:58:25.374Z,47.00
2018-02-20T11:00:53.654Z,46.70
2018-02-20T11:03:22.398Z,46.80
2018-02-20T11:05:51.618Z,46.10
2018-02-20T11:08:19.873Z,46.50
2018-02-20T11:10:49.366Z,46.30
2018-02-20T11:13:18.490Z,45.80
2018-02-20T11:15:47.619Z,45.80
2018-02-20T11:18:16.043Z,46.10
2018-02-20T11:20:47.140Z,45.90
2018-02-20T11:23:15.469Z,45.90
2018-02-20T11:25:44.045Z,45.80
2018-02-20T11:28:13.968Z,45.60
2018-02-20T11:30:42.385Z,45.60
2018-02-20T11:33:10.645Z,45.30
2018-02-20T11:35:38.942Z,45.00
2018-02-20T11:38:07.185Z,44.80
2018-02-20T11:40:36.426Z,45.10
2018-02-20T11:43:04.844Z,45.10
2018-02-20T11:45:33.078Z,45.10
2018-02-20T11:48:01.408Z,44.90
2018-02-20T11:50:30.447Z,46.50
2018-02-20T11:52:59.590Z,46.20
2018-02-20T11:55:27.836Z,45.70
2018-02-20T11:57:56.210Z,45.10
2018-02-20T12:00:24.479Z,45.60
2018-02-20T12:02:53.065Z,45.30
2018-02-20T12:05:21.319Z,46.10
2018-02-20T12:07:49.573Z,44.50
2018-02-20T12:10:18.727Z,43.70
2018-02-20T12:12:47.077Z,43.60
2018-02-20T12:15:15.317Z,43.80
2018-02-20T12:17:44.328Z,43.50
2018-02-20T12:20:12.617Z,43.10
2018-02-20T12:22:40.953Z,43.10
2018-02-20T12:25:10.162Z,43.40
2018-02-20T12:27:38.373Z,42.90
2018-02-20T12:30:06.826Z,42.30
2018-02-20T12:32:35.909Z,41.50
2018-02-20T12:35:04.941Z,42.20
2018-02-20T12:37:34.137Z,41.50
2018-02-20T12:40:02.422Z,41.40
2018-02-20T12:42:30.744Z,41.50
2018-02-20T12:44:58.980Z,41.40
2018-02-20T12:47:27.269Z,41.40
2018-02-20T12:49:55.517Z,41.10
2018-02-20T12:52:23.810Z,41.00
2018-02-20T12:54:52.069Z,40.80
2018-02-20T12:57:20.355Z,40.90
2018-02-20T12:59:48.609Z,40.60
2018-02-20T13:02:16.882Z,40.20
2018-02-20T13:04:45.174Z,40.20
2018-02-20T13:07:13.454Z,40.20
2018-02-20T13:09:41.709Z,40.20
2018-02-20T13:12:09.976Z,40.40
2018-02-20T13:14:38.349Z,40.10
2018-02-20T13:17:07.547Z,40.20
2018-02-20T13:19:36.648Z,40.20
2018-02-20T13:22:05.756Z,40.20
2018-02-20T13:24:34.038Z,40.10
2018-02-20T13:27:03.539Z,40.30
2018-02-20T13:29:32.713Z,40.20
2018-02-20T13:32:01.442Z,40.10
2018-02-20T13:34:29.806Z,40.00
2018-02-20T13:36:58.791Z,39.90
2018-02-20T13:39:27.348Z,39.70
2018-02-20T13:41:55.682Z,40.00
2018-02-20T13:44:23.938Z,39.90
2018-02-20T13:46:52.188Z,39.40
2018-02-20T13:49:21.269Z,38.70
2018-02-20T13:51:50.338Z,38.60
2018-02-20T13:54:18.681Z,38.30
2018-02-20T13:56:46.962Z,38.60
2018-02-20T13:59:15.233Z,38.80
2018-02-20T14:01:43.478Z,38.70
2018-02-20T14:04:11.779Z,39.10
2018-02-20T14:06:40.088Z,39.20
2018-02-20T14:09:08.342Z,39.20
2018-02-20T14:11:36.686Z,39.50
2018-02-20T14:14:04.945Z,39.80
2018-02-20T14:16:33.224Z,39.90
2018-02-20T14:19:01.470Z,39.90
2018-02-20T14:21:29.745Z,40.00
2018-02-20T14:23:58.069Z,39.90
2018-02-20T14:26:27.067Z,40.20
2018-02-20T14:28:55.357Z,40.10
2018-02-20T14:31:23.696Z,40.30
2018-02-20T14:33:51.969Z,40.40
2018-02-20T14:36:20.281Z,40.40
2018-02-20T14:38:48.543Z,40.70
2018-02-20T14:41:18.302Z,40.50
2018-02-20T14:43:46.731Z,40.50
2018-02-20T14:46:14.977Z,40.40
2018-02-20T14:48:43.222Z,40.50
2018-02-20T14:51:11.514Z,40.50
2018-02-20T14:53:41.960Z,40.70
2018-02-20T14:56:10.382Z,40.80
2018-02-20T14:58:38.805Z,40.90
2018-02-20T15:01:07.233Z,41.00
2018-02-20T15:03:35.607Z,41.00
2018-02-20T15:06:03.855Z,41.30
2018-02-20T15:08:32.225Z,41.00
2018-02-20T15:11:00.634Z,40.90
2018-02-20T15:13:28.881Z,41.60
2018-02-20T15:15:57.144Z,40.80
2018-02-20T15:18:25.429Z,41.00
2018-02-20T15:20:53.702Z,41.20
2018-02-20T15:23:21.989Z,41.10
2018-02-20T15:25:50.299Z,41.10
2018-02-20T15:28:18.541Z,41.00
2018-02-20T15:30:46.836Z,41.20
2018-02-20T15:33:16.731Z,41.40
2018-02-20T15:35:45.455Z,41.40
2018-02-20T15:38:13.846Z,41.20
2018-02-20T15:40:42.960Z,41.30
2018-02-20T15:43:11.218Z,41.20
2018-02-20T15:45:41.343Z,41.10
2018-02-20T15:48:09.632Z,40.90
2018-02-20T15:50:38.665Z,40.90
2018-02-20T15:53:06.932Z,41.10
2018-02-20T15:55:35.367Z,40.80
2018-02-20T15:58:03.832Z,40.60
2018-02-20T16:00:32.073Z,40.40
2018-02-20T16:03:00.352Z,40.60
2018-02-20T16:05:29.407Z,40.40
2018-02-20T16:07:57.703Z,40.30
2018-02-20T16:10:25.966Z,40.50
2018-02-20T16:12:54.589Z,40.30
2018-02-20T16:15:22.873Z,40.30
2018-02-20T16:17:51.175Z,40.10
2018-02-20T16:20:19.646Z,39.90
2018-02-20T16:22:47.935Z,39.80
2018-02-20T16:25:16.774Z,40.00
2018-02-20T16:27:45.042Z,40.00
2018-02-20T16:30:13.340Z,39.70
2018-02-20T16:32:41.579Z,39.90
2018-02-20T16:35:09.849Z,39.80
2018-02-20T16:37:38.139Z,40.00
2018-02-20T16:40:06.441Z,39.80
2018-02-20T16:42:34.752Z,39.70
2018-02-20T16:45:03.030Z,39.80
2018-02-20T16:47:31.425Z,40.00
2018-02-20T16:50:00.546Z,40.10
2018-02-20T16:52:29.724Z,40.10
2018-02-20T16:55:00.177Z,40.30
2018-02-20T16:57:28.450Z,40.40
2018-02-20T16:59:56.732Z,40.50
2018-02-20T17:02:25.818Z,40.50
2018-02-20T17:04:54.062Z,40.60
2018-02-20T17:07:23.153Z,40.30
2018-02-20T17:09:51.541Z,40.50
2018-02-20T17:12:19.803Z,40.50
2018-02-20T17:14:48.023Z,40.30
2018-02-20T17:17:16.306Z,40.40
2018-02-20T17:19:44.774Z,40.40
2018-02-20T17:22:13.763Z,40.40
2018-02-20T17:24:42.112Z,40.60
2018-02-20T17:27:10.485Z,40.60
2018-02-20T17:29:38.881Z,40.80
2018-02-20T17:32:07.983Z,40.50
2018-02-20T17:34:36.363Z,40.70
2018-02-20T17:37:06.049Z,40.60
2018-02-20T17:39:34.277Z,40.50
2018-02-20T17:42:03.485Z,40.50
2018-02-20T17:44:31.830Z,40.60
2018-02-20T17:47:00.110Z,40.50
2018-02-20T17:49:29.251Z,40.50
2018-02-20T17:51:57.529Z,40.60
2018-02-20T17:54:25.844Z,40.60
2018-02-20T17:56:54.110Z,40.60
2018-02-20T17:59:23.138Z,40.60
2018-02-20T18:01:51.454Z,40.60
2018-02-20T18:04:20.142Z,40.50
2018-02-20T18:06:48.412Z,40.60
2018-02-20T18:09:16.676Z,40.50
2018-02-20T18:11:44.996Z,40.40
2018-02-20T18:14:13.255Z,40.50
2018-02-20T18:16:41.590Z,40.50
2018-02-20T18:19:09.858Z,40.80
2018-02-20T18:21:38.118Z,40.80
2018-02-20T18:24:06.402Z,40.70
2018-02-20T18:26:34.717Z,40.50
2018-02-20T18:29:03.786Z,40.80
2018-02-20T18:31:32.118Z,40.80
2018-02-20T18:34:00.370Z,40.80
2018-02-20T18:36:28.674Z,40.80
2018-02-20T18:38:56.898Z,41.10
2018-02-20T18:41:25.220Z,40.90
2018-02-20T18:43:53.425Z,41.00
2018-02-20T18:46:22.701Z,41.00
2018-02-20T18:48:52.880Z,41.20
2018-02-20T18:51:21.189Z,41.10
2018-02-20T18:53:49.446Z,41.10
2018-02-20T18:56:17.722Z,41.10
2018-02-20T18:58:46.053Z,41.10
2018-02-20T19:01:14.469Z,41.10
2018-02-20T19:03:42.893Z,41.00
2018-02-20T19:06:11.263Z,41.00
2018-02-20T19:08:40.626Z,40.90
2018-02-20T19:11:09.007Z,41.10
2018-02-20T19:13:37.379Z,41.10
2018-02-20T19:16:05.742Z,41.10
2018-02-20T19:18:34.001Z,41.20
2018-02-20T19:21:02.249Z,41.10
2018-02-20T19:23:30.585Z,41.30
2018-02-20T19:25:58.830Z,40.80
2018-02-20T19:28:27.114Z,41.20
2018-02-20T19:30:55.377Z,41.00
2018-02-20T19:33:24.490Z,41.40
2018-02-20T19:35:52.784Z,41.40
2018-02-20T19:38:21.023Z,41.50
2018-02-20T19:40:50.042Z,41.60
2018-02-20T19:43:18.273Z,41.50
2018-02-20T19:45:46.556Z,41.60
2018-02-20T19:48:14.839Z,41.60
2018-02-20T19:50:43.121Z,41.70
2018-02-20T19:53:12.234Z,41.50
2018-02-20T19:55:42.281Z,41.30
2018-02-20T19:58:10.578Z,41.40
2018-02-20T20:00:38.825Z,41.30
2018-02-20T20:03:07.183Z,41.30
2018-02-20T20:05:35.599Z,41.20
2018-02-20T20:08:03.862Z,41.00
2018-02-20T20:10:32.094Z,41.10
2018-02-20T20:13:00.959Z,41.40
2018-02-20T20:15:29.346Z,41.40
2018-02-20T20:17:57.637Z,41.30
2018-02-20T20:20:36.905Z,41.30
2018-02-20T20:22:56.325Z,41.20
2018-02-20T20:25:24.638Z,41.10
2018-02-20T20:27:53.288Z,41.40
2018-02-20T20:30:21.534Z,41.20
2018-02-20T20:32:49.871Z,41.10
2018-02-20T20:35:18.321Z,41.60
2018-02-20T20:37:47.579Z,41.70
2018-02-20T20:40:16.299Z,41.70
2018-02-20T20:42:44.538Z,42.10
2018-02-20T20:45:13.557Z,41.90
2018-02-20T20:47:41.859Z,42.20
2018-02-20T20:50:11.113Z,42.00
2018-02-20T20:52:39.453Z,42.20
2018-02-20T20:55:08.549Z,42.20
2018-02-20T20:57:37.598Z,42.10
2018-02-20T21:00:05.977Z,42.10
2018-02-20T21:02:34.269Z,42.10
2018-02-20T21:05:02.609Z,42.20
2018-02-20T21:07:31.853Z,42.90
2018-02-20T21:10:00.177Z,42.00
2018-02-20T21:12:29.929Z,42.40
2018-02-20T21:14:58.409Z,42.40
2018-02-20T21:17:26.965Z,42.30
2018-02-20T21:19:55.360Z,42.20
2018-02-20T21:22:23.717Z,42.30
2018-02-20T21:24:52.159Z,42.70
2018-02-20T21:27:21.393Z,42.80
2018-02-20T21:29:49.686Z,42.80
2018-02-20T21:32:22.131Z,42.90
2018-02-20T21:34:50.958Z,43.00
2018-02-20T21:37:19.315Z,43.00
2018-02-20T21:39:47.566Z,43.10
2018-02-20T21:42:15.988Z,43.20
2018-02-20T21:44:44.338Z,43.40
2018-02-20T21:47:13.598Z,43.80
2018-02-20T21:49:41.925Z,43.10
2018-02-20T21:52:10.357Z,43.20
2018-02-20T21:54:39.811Z,42.80
2018-02-20T21:57:09.020Z,42.90
2018-02-20T21:59:37.751Z,42.70
2018-02-20T22:02:06.168Z,42.80
2018-02-20T22:04:34.556Z,42.70
2018-02-20T22:07:03.130Z,42.70
2018-02-20T22:09:32.494Z,43.20
2018-02-20T22:12:00.918Z,43.30
2018-02-20T22:14:30.225Z,43.40
2018-02-20T22:16:58.600Z,43.40
2018-02-20T22:19:27.800Z,43.30
2018-02-20T22:21:56.230Z,43.30
2018-02-20T22:24:24.790Z,43.30
2018-02-20T22:26:54.055Z,43.80
2018-02-20T22:29:26.121Z,43.60
2018-02-20T22:31:54.821Z,43.70
2018-02-20T22:34:23.348Z,43.50
2018-02-20T22:36:52.599Z,43.60
2018-02-20T22:39:20.850Z,43.70
2018-02-20T22:41:49.571Z,43.90
2018-02-20T22:44:17.941Z,43.90
2018-02-20T22:46:46.450Z,44.20
2018-02-20T22:49:14.830Z,44.30
2018-02-20T22:51:43.113Z,44.30
2018-02-20T22:54:11.607Z,44.20
2018-02-20T22:56:40.034Z,44.00
2018-02-20T22:59:09.302Z,44.00
2018-02-20T23:01:37.907Z,43.90
2018-02-20T23:04:06.425Z,43.70
2018-02-20T23:06:34.831Z,43.60
2018-02-20T23:09:03.421Z,43.50
2018-02-20T23:11:43.800Z,43.70
2018-02-20T23:14:12.134Z,44.40
2018-02-20T23:16:40.664Z,43.90
2018-02-20T23:19:09.881Z,43.80
2018-02-20T23:21:39.383Z,43.80
2018-02-20T23:24:07.943Z,43.80
2018-02-20T23:26:36.316Z,43.60
2018-02-20T23:29:04.803Z,43.60
2018-02-20T23:31:33.288Z,43.90
2018-02-20T23:34:02.017Z,43.80
2018-02-20T23:36:30.508Z,43.70
2018-02-20T23:38:59.770Z,43.70
2018-02-20T23:41:28.344Z,43.70
2018-02-20T23:43:57.007Z,43.70
2018-02-20T23:46:26.301Z,43.50
2018-02-20T23:48:56.575Z,43.80
2018-02-20T23:51:31.152Z,44.40
2018-02-20T23:54:00.002Z,43.50
2018-02-20T23:56:28.505Z,43.40
2018-02-20T23:58:57.116Z,43.30
